createdAt,value
2022-10-22T00:00:00.222Z,0
2022-10-22T00:05:00.188Z,0
2022-10-22T00:10:02.189Z,0
2022-10-22T00:15:00.178Z,0
2022-10-22T00:20:00.179Z,0
2022-10-22T00:25:00.165Z,0
2022-10-22T00:30:00.191Z,0
2022-10-22T00:35:00.185Z,0
2022-10-22T00:40:00.198Z,0
2022-10-22T00:45:00.175Z,0
2022-10-22T00:50:00.263Z,0
2022-10-22T00:55:00.205Z,0
2022-10-22T01:00:00.288Z,0
2022-10-22T01:05:00.170Z,0
2022-10-22T01:10:00.187Z,0
2022-10-22T01:15:00.175Z,0
2022-10-22T01:20:00.193Z,0
2022-10-22T01:25:00.173Z,0
2022-10-22T01:30:00.182Z,0
2022-10-22T01:35:00.170Z,0
2022-10-22T01:40:00.176Z,0
2022-10-22T01:45:00.172Z,0
2022-10-22T01:50:00.171Z,0
2022-10-22T01:55:00.180Z,0
2022-10-22T02:00:00.192Z,0
2022-10-22T02:05:00.173Z,0
2022-10-22T02:10:00.171Z,0
2022-10-22T02:15:00.188Z,0
2022-10-22T02:20:00.173Z,0
2022-10-22T02:25:00.166Z,0
2022-10-22T02:30:00.190Z,0
2022-10-22T02:35:00.172Z,0
2022-10-22T02:40:00.165Z,0
2022-10-22T02:45:00.171Z,0
2022-10-22T02:50:00.192Z,0
2022-10-22T02:55:00.171Z,0
2022-10-22T03:00:00.264Z,0
2022-10-22T03:05:00.191Z,0
2022-10-22T03:10:00.204Z,0
2022-10-22T03:15:00.196Z,0
2022-10-22T03:20:00.191Z,0
2022-10-22T03:25:00.200Z,0
2022-10-22T03:30:00.237Z,0
2022-10-22T03:40:00.198Z,0
2022-10-22T03:45:00.179Z,0
2022-10-22T03:50:00.195Z,0
2022-10-22T03:55:00.215Z,0
2022-10-22T04:00:00.239Z,0
2022-10-22T04:05:00.318Z,0
2022-10-22T04:10:00.217Z,0
2022-10-22T04:15:00.200Z,0
2022-10-22T04:20:00.202Z,0
2022-10-22T04:25:00.292Z,0
2022-10-22T04:30:00.233Z,0
2022-10-22T04:35:00.199Z,0
2022-10-22T04:40:00.208Z,0
2022-10-22T04:45:00.193Z,0
2022-10-22T04:50:00.219Z,0
2022-10-22T04:55:00.197Z,0
2022-10-22T05:00:00.254Z,0
2022-10-22T05:05:00.180Z,0
2022-10-22T05:10:00.195Z,0
2022-10-22T05:15:00.217Z,0
2022-10-22T05:20:00.215Z,0
2022-10-22T05:25:00.211Z,0
2022-10-22T05:30:00.219Z,0
2022-10-22T05:35:00.217Z,0
2022-10-22T05:40:12.455Z,0
2022-10-22T05:45:00.186Z,0
2022-10-22T05:50:00.206Z,0
2022-10-22T05:55:00.236Z,18
2022-10-22T06:00:00.262Z,32
2022-10-22T06:05:00.202Z,65
2022-10-22T06:10:00.195Z,108
2022-10-22T06:15:00.240Z,151
2022-10-22T06:20:00.340Z,248
2022-10-22T06:25:00.233Z,407
2022-10-22T06:30:00.225Z,611
2022-10-22T06:35:00.218Z,775
2022-10-22T06:40:00.225Z,991
2022-10-22T06:50:00.211Z,1253
2022-10-22T06:55:00.226Z,1231
2022-10-22T07:00:00.224Z,1413
2022-10-22T07:05:00.221Z,1790
2022-10-22T07:10:00.214Z,1790
2022-10-22T07:15:00.211Z,2570
2022-10-22T07:20:00.221Z,2889
2022-10-22T07:25:05.156Z,2889
2022-10-22T07:30:00.214Z,2889
2022-10-22T07:35:00.203Z,2566
2022-10-22T07:40:03.706Z,2566
2022-10-22T07:45:00.199Z,3726
2022-10-22T07:50:00.205Z,3668
2022-10-22T07:55:00.208Z,2897
2022-10-22T08:00:00.257Z,3267
2022-10-22T08:05:01.492Z,3673
2022-10-22T08:10:00.201Z,4673
2022-10-22T08:15:00.236Z,4673
2022-10-22T08:20:00.230Z,5260
2022-10-22T08:25:00.197Z,4157
2022-10-22T08:35:00.225Z,6031
2022-10-22T08:40:00.216Z,5375
2022-10-22T08:45:00.237Z,5237
2022-10-22T08:50:00.199Z,3133
2022-10-22T08:55:00.213Z,2856
2022-10-22T09:00:00.300Z,3216
2022-10-22T09:05:00.222Z,3203
2022-10-22T09:10:00.297Z,3203
2022-10-22T09:15:00.264Z,3308
2022-10-22T09:20:00.219Z,2946
2022-10-22T09:25:00.212Z,4879
2022-10-22T09:30:00.216Z,4360
2022-10-22T09:35:00.201Z,5352
2022-10-22T09:40:00.207Z,4099
2022-10-22T09:45:00.198Z,3716
2022-10-22T09:50:00.251Z,7016
2022-10-22T09:55:00.202Z,3803
2022-10-22T10:00:00.234Z,4496
2022-10-22T10:05:00.220Z,4834
2022-10-22T10:10:00.215Z,6166
2022-10-22T10:15:00.201Z,9614
2022-10-22T10:20:03.689Z,5987
2022-10-22T10:25:00.236Z,7052
2022-10-22T10:30:00.241Z,8128
2022-10-22T10:35:00.214Z,5187
2022-10-22T10:40:00.236Z,17338
2022-10-22T10:45:00.238Z,5027
2022-10-22T10:50:00.223Z,15567
2022-10-22T10:55:00.208Z,21807
2022-10-22T11:00:00.315Z,10146
2022-10-22T11:05:00.225Z,9897
2022-10-22T11:10:00.212Z,7770
2022-10-22T11:15:00.201Z,15787
2022-10-22T11:20:00.540Z,15241
2022-10-22T11:25:00.210Z,6399
2022-10-22T11:30:00.218Z,9904
2022-10-22T11:35:00.200Z,6887
2022-10-22T11:40:00.210Z,4763
2022-10-22T11:45:00.319Z,6847
2022-10-22T11:50:00.219Z,5573
2022-10-22T11:55:00.212Z,5573
2022-10-22T12:00:00.261Z,4555
2022-10-22T12:05:00.208Z,3591
2022-10-22T12:10:00.303Z,5630
2022-10-22T12:15:01.422Z,7332
2022-10-22T12:20:02.209Z,5237
2022-10-22T12:25:00.226Z,4855
2022-10-22T12:30:00.214Z,5750
2022-10-22T12:35:00.264Z,6336
2022-10-22T12:40:00.202Z,4340
2022-10-22T12:45:00.229Z,4761
2022-10-22T12:50:00.220Z,4834
2022-10-22T12:55:00.190Z,3697
2022-10-22T13:05:00.193Z,3194
2022-10-22T13:10:00.215Z,4049
2022-10-22T13:15:00.201Z,4553
2022-10-22T13:20:00.228Z,5602
2022-10-22T13:25:00.351Z,5602
2022-10-22T13:30:00.252Z,5602
2022-10-22T13:35:00.202Z,4533
2022-10-22T13:40:00.255Z,3770
2022-10-22T13:45:00.222Z,4113
2022-10-22T13:50:00.398Z,4113
2022-10-22T13:55:00.226Z,4096
2022-10-22T14:00:00.328Z,2591
2022-10-22T14:05:00.221Z,3499
2022-10-22T14:10:00.215Z,2108
2022-10-22T14:15:00.416Z,1984
2022-10-22T14:20:00.226Z,2516
2022-10-22T14:30:00.251Z,2235
2022-10-22T14:35:00.227Z,2515
2022-10-22T14:40:00.272Z,2515
2022-10-22T14:45:00.206Z,2187
2022-10-22T14:50:00.335Z,2165
2022-10-22T14:55:00.236Z,2165
2022-10-22T15:00:00.433Z,2165
2022-10-22T15:05:00.352Z,1918
2022-10-22T15:10:00.333Z,1508
2022-10-22T15:15:00.236Z,1697
2022-10-22T15:20:00.228Z,1697
2022-10-22T15:25:00.213Z,1324
2022-10-22T15:30:00.430Z,1178
2022-10-22T15:35:00.212Z,1178
2022-10-22T15:40:00.233Z,1178
2022-10-22T15:45:00.243Z,1178
2022-10-22T15:50:00.216Z,1046
2022-10-22T15:55:00.290Z,827
2022-10-22T16:00:00.234Z,653
2022-10-22T16:05:00.434Z,516
2022-10-22T16:10:00.243Z,372
2022-10-22T16:15:00.206Z,227
2022-10-22T16:20:00.345Z,162
2022-10-22T16:25:00.219Z,116
2022-10-22T16:30:00.215Z,83
2022-10-22T16:35:00.204Z,43
2022-10-22T16:40:03.118Z,29
2022-10-22T16:45:00.208Z,15
2022-10-22T16:50:00.207Z,8
2022-10-22T16:55:00.217Z,8
2022-10-22T17:00:00.236Z,3
2022-10-22T17:05:00.207Z,0
2022-10-22T17:10:00.209Z,0
2022-10-22T17:15:00.213Z,0
2022-10-22T17:20:00.230Z,0
2022-10-22T17:25:00.215Z,0
2022-10-22T17:30:00.220Z,0
2022-10-22T17:35:00.216Z,0
2022-10-22T17:40:00.203Z,0
2022-10-22T17:45:00.244Z,0
2022-10-22T17:50:00.215Z,0
2022-10-22T17:55:00.203Z,0
2022-10-22T18:00:00.214Z,0
2022-10-22T18:05:00.236Z,0
2022-10-22T18:10:00.240Z,0
2022-10-22T18:15:00.214Z,0
2022-10-22T18:20:00.219Z,0
2022-10-22T18:25:00.233Z,0
2022-10-22T18:30:00.215Z,0
2022-10-22T18:35:00.199Z,0
2022-10-22T18:40:00.207Z,0
2022-10-22T18:45:00.227Z,0
2022-10-22T18:50:00.192Z,0
2022-10-22T18:55:00.208Z,0
2022-10-22T19:00:00.223Z,0
2022-10-22T19:05:00.211Z,0
2022-10-22T19:10:00.209Z,0
2022-10-22T19:15:00.205Z,0
2022-10-22T19:20:00.207Z,0
2022-10-22T19:25:00.211Z,0
2022-10-22T19:30:00.209Z,0
2022-10-22T19:35:00.241Z,0
2022-10-22T19:40:00.208Z,0
2022-10-22T19:45:00.229Z,0
2022-10-22T19:50:00.210Z,0
2022-10-22T19:55:00.221Z,0
2022-10-22T20:00:00.252Z,0
2022-10-22T20:05:00.200Z,0
2022-10-22T20:10:00.216Z,0
2022-10-22T20:15:00.189Z,0
2022-10-22T20:20:00.205Z,0
2022-10-22T20:25:00.201Z,0
2022-10-22T20:30:00.210Z,0
2022-10-22T20:35:00.259Z,0
2022-10-22T20:40:00.254Z,0
2022-10-22T20:45:00.185Z,0
2022-10-22T20:50:00.197Z,0
2022-10-22T20:55:00.209Z,0
2022-10-22T21:00:00.217Z,0
2022-10-22T21:05:00.183Z,0
2022-10-22T21:10:00.205Z,0
2022-10-22T21:15:00.200Z,0
2022-10-22T21:20:00.333Z,0
2022-10-22T21:25:00.217Z,0
2022-10-22T21:30:00.233Z,0
2022-10-22T21:35:00.200Z,0
2022-10-22T21:40:00.198Z,0
2022-10-22T21:45:00.286Z,0
2022-10-22T21:50:00.196Z,0
2022-10-22T21:55:00.182Z,0
2022-10-22T22:00:00.214Z,0
2022-10-22T22:05:00.218Z,0
2022-10-22T22:10:00.205Z,0
2022-10-22T22:15:00.189Z,0
2022-10-22T22:20:00.190Z,0
2022-10-22T22:25:00.199Z,0
2022-10-22T22:30:00.191Z,0
2022-10-22T22:35:00.196Z,0
2022-10-22T22:40:00.180Z,0
2022-10-22T22:45:00.194Z,0
2022-10-22T22:50:00.201Z,0
2022-10-22T22:55:00.215Z,0
2022-10-22T23:00:00.191Z,0
2022-10-22T23:05:00.199Z,0
2022-10-22T23:10:00.275Z,0
2022-10-22T23:15:00.196Z,0
2022-10-22T23:20:00.188Z,0
2022-10-22T23:25:00.212Z,0
2022-10-22T23:30:00.205Z,0
2022-10-22T23:35:00.183Z,0
2022-10-22T23:40:00.199Z,0
2022-10-22T23:45:00.173Z,0
2022-10-22T23:50:00.202Z,0
2022-10-22T23:55:00.188Z,0
